Time;durP1;ratioP1;P1;durP2;ratioP2;P2;SDS_P1;SDS_P2;PMS_P1;PMS_P2;Temp;Humidity;BMP_temperature;BMP_pressure;BME280_temperature;BME280_humidity;BME280_pressure;Samples;Min_cycle;Max_cycle;Signal;HPM_P1;HPM_P2
2022/08/31 00:05:43;;;;;;;4.03;0.98;;;16.50;99.90;;;;;;5051938;28;20044;-69
2022/08/31 00:08:09;;;;;;;3.55;1.10;;;15.40;99.90;;;;;;5051704;28;20048;-69
2022/08/31 00:10:39;;;;;;;6.00;1.27;;;15.60;99.90;;;;;;5034505;28;20252;-69
2022/08/31 00:13:06;;;;;;;3.58;1.13;;;16.60;99.90;;;;;;5028305;28;20040;-69
2022/08/31 00:15:31;;;;;;;3.60;1.00;;;15.20;99.90;;;;;;5045731;28;20501;-69
2022/08/31 00:17:58;;;;;;;4.57;1.00;;;15.90;99.90;;;;;;5051879;28;20037;-69
2022/08/31 00:20:25;;;;;;;3.53;0.90;;;15.00;99.90;;;;;;5033832;28;20516;-69
2022/08/31 00:22:50;;;;;;;2.85;0.88;;;14.90;99.90;;;;;;5022078;28;20124;-69
2022/08/31 00:25:17;;;;;;;4.13;1.00;;;14.70;99.90;;;;;;5029428;28;20167;-69
2022/08/31 00:27:42;;;;;;;2.88;0.90;;;14.90;99.90;;;;;;5031687;28;20041;-69
2022/08/31 00:30:09;;;;;;;4.30;1.20;;;14.90;99.90;;;;;;5030918;28;20048;-69
2022/08/31 00:32:34;;;;;;;4.80;1.23;;;15.10;99.90;;;;;;5050685;28;20417;-69
2022/08/31 00:35:00;;;;;;;4.65;1.67;;;15.20;99.90;;;;;;5050102;28;20042;-69
2022/08/31 00:37:27;;;;;;;4.30;1.10;;;15.30;99.90;;;;;;5051691;28;20052;-69
2022/08/31 00:39:53;;;;;;;3.22;1.00;;;15.20;99.90;;;;;;5043085;28;20402;-69
2022/08/31 00:42:19;;;;;;;3.15;1.15;;;15.10;99.90;;;;;;5049676;28;20091;-69
2022/08/31 00:44:44;;;;;;;3.63;1.10;;;15.00;99.90;;;;;;5051046;28;20036;-69
2022/08/31 00:47:10;;;;;;;3.08;1.00;;;15.20;99.90;;;;;;5048871;28;20080;-69
2022/08/31 00:49:40;;;;;;;3.22;1.10;;;15.00;99.90;;;;;;5048385;28;20376;-69
2022/08/31 00:52:11;;;;;;;2.65;1.00;;;14.70;99.90;;;;;;5034305;28;20482;-69
2022/08/31 00:54:51;;;;;;;3.40;1.10;;;15.10;99.90;;;;;;5050472;28;20063;-69
2022/08/31 00:57:17;;;;;;;3.92;1.02;;;14.90;99.90;;;;;;5050936;28;20041;-69
2022/08/31 00:59:45;;;;;;;4.10;0.93;;;15.00;99.90;;;;;;5050732;28;20090;-68
2022/08/31 01:02:10;;;;;;;2.65;1.10;;;14.80;99.90;;;;;;5045622;28;20037;-69
2022/08/31 01:04:36;;;;;;;3.08;1.08;;;14.90;99.90;;;;;;5050192;28;20037;-69
2022/08/31 01:07:05;;;;;;;4.07;1.20;;;14.80;99.90;;;;;;5045605;28;20495;-69
2022/08/31 01:09:35;;;;;;;3.58;1.02;;;14.60;99.90;;;;;;5042334;28;20121;-69
2022/08/31 01:12:01;;;;;;;3.25;1.10;;;14.70;99.90;;;;;;5033149;28;20049;-69
2022/08/31 01:14:28;;;;;;;3.28;1.00;;;13.70;99.90;;;;;;5050186;28;20114;-69
2022/08/31 01:16:55;;;;;;;2.97;1.05;;;14.70;99.90;;;;;;5048816;28;20045;-69
2022/08/31 01:19:23;;;;;;;3.47;1.00;;;13.80;99.90;;;;;;5048601;28;20029;-69
2022/08/31 01:22:01;;;;;;;3.42;1.02;;;14.90;99.90;;;;;;5050617;28;20382;-69
2022/08/31 01:24:29;;;;;;;2.50;1.02;;;14.80;99.90;;;;;;5051360;28;20037;-69
2022/08/31 01:27:01;;;;;;;4.50;1.20;;;14.60;99.90;;;;;;5050074;28;20174;-69
2022/08/31 01:29:28;;;;;;;4.78;1.05;;;14.60;99.90;;;;;;5033533;28;20436;-69
2022/08/31 01:31:53;;;;;;;15.68;1.50;;;13.40;99.90;;;;;;5049080;28;20032;-69
2022/08/31 01:34:19;;;;;;;3.13;0.98;;;13.80;99.90;;;;;;5051142;28;20486;-69
2022/08/31 01:36:46;;;;;;;3.40;1.00;;;13.40;99.90;;;;;;5044978;28;20046;-69
2022/08/31 01:39:13;;;;;;;4.22;1.10;;;14.30;99.90;;;;;;5031706;28;20028;-69
2022/08/31 01:41:42;;;;;;;4.28;1.20;;;14.50;99.90;;;;;;5050348;28;20414;-69
2022/08/31 01:44:15;;;;;;;3.28;1.13;;;13.80;99.90;;;;;;5032821;28;20124;-69
2022/08/31 01:46:42;;;;;;;3.22;0.98;;;13.40;99.90;;;;;;5048354;28;20043;-69
2022/08/31 01:49:08;;;;;;;3.38;1.17;;;14.50;99.90;;;;;;5044840;28;20116;-69
2022/08/31 01:51:34;;;;;;;2.53;0.90;;;;;;;;;;5048182;28;20086;-69
2022/08/31 01:54:00;;;;;;;4.80;1.20;;;14.30;99.90;;;;;;5050270;28;20045;-69
2022/08/31 01:56:43;;;;;;;3.08;1.10;;;14.20;99.90;;;;;;5044841;28;20041;-69
2022/08/31 01:59:11;;;;;;;4.00;1.20;;;13.70;99.90;;;;;;5047076;28;20551;-69
2022/08/31 02:01:40;;;;;;;3.95;1.00;;;13.10;99.90;;;;;;5047201;28;20041;-69
2022/08/31 02:04:08;;;;;;;5.07;0.98;;;13.10;99.90;;;;;;5049779;28;20494;-69
2022/08/31 02:06:34;;;;;;;4.60;1.15;;;13.20;99.90;;;;;;5049646;28;20045;-69
2022/08/31 02:09:01;;;;;;;2.55;0.90;;;14.10;99.90;;;;;;5049635;28;20032;-69
2022/08/31 02:11:27;;;;;;;2.55;0.90;;;14.20;99.90;;;;;;5045933;28;20045;-69
2022/08/31 02:13:53;;;;;;;4.43;1.38;;;14.10;99.90;;;;;;5043151;28;20033;-69
2022/08/31 02:16:18;;;;;;;4.60;1.35;;;13.20;99.90;;;;;;5047496;28;20048;-69
2022/08/31 02:18:44;;;;;;;2.25;0.90;;;13.40;99.90;;;;;;5049476;28;20398;-69
2022/08/31 02:21:12;;;;;;;5.10;1.10;;;13.70;99.90;;;;;;5048737;28;20032;-69
2022/08/31 02:23:38;;;;;;;3.13;1.20;;;;;;;;;;5044294;28;20048;-69
2022/08/31 02:26:04;;;;;;;4.20;1.00;;;14.30;99.90;;;;;;5030844;28;20039;-69
2022/08/31 02:28:29;;;;;;;3.50;1.00;;;13.50;99.90;;;;;;5046517;28;20033;-69
2022/08/31 02:30:55;;;;;;;6.10;1.10;;;13.00;99.90;;;;;;5050126;28;20406;-69
2022/08/31 02:33:23;;;;;;;3.47;1.00;;;14.00;99.90;;;;;;5046972;28;20033;-69
2022/08/31 02:35:49;;;;;;;3.80;1.10;;;13.60;99.90;;;;;;5031664;28;20058;-69
2022/08/31 02:38:15;;;;;;;5.03;1.20;;;13.40;99.90;;;;;;5048951;28;20059;-69
2022/08/31 02:40:40;;;;;;;3.55;1.27;;;13.20;99.90;;;;;;5041681;28;20037;-69
2022/08/31 02:43:09;;;;;;;3.78;1.30;;;13.00;99.90;;;;;;5049754;28;20115;-69
2022/08/31 02:45:35;;;;;;;3.45;1.30;;;13.00;99.90;;;;;;5043614;28;20044;-69
2022/08/31 02:48:02;;;;;;;2.72;1.10;;;;;;;;;;5047483;28;20033;-69
2022/08/31 02:50:28;;;;;;;4.22;1.15;;;13.20;99.90;;;;;;5049156;28;20033;-69
2022/08/31 02:52:55;;;;;;;3.38;1.25;;;12.70;99.90;;;;;;5049754;28;20040;-69
2022/08/31 02:55:22;;;;;;;2.85;1.10;;;;;;;;;;5026894;28;20561;-69
2022/08/31 02:57:47;;;;;;;3.45;1.10;;;13.30;99.90;;;;;;5044951;28;20089;-70
2022/08/31 03:00:13;;;;;;;5.93;1.30;;;12.90;99.90;;;;;;5049506;28;20387;-69
2022/08/31 03:02:39;;;;;;;4.10;1.10;;;13.00;1.00;;;;;;5031075;28;20189;-70
2022/08/31 03:05:09;;;;;;;2.55;0.90;;;12.90;1.00;;;;;;5048042;28;20048;-69
2022/08/31 03:07:35;;;;;;;3.60;1.00;;;12.90;99.90;;;;;;5030588;28;20041;-69
2022/08/31 03:10:01;;;;;;;2.85;1.08;;;;;;;;;;5043620;28;20037;-69
2022/08/31 03:12:27;;;;;;;4.07;1.00;;;13.00;1.00;;;;;;5049405;28;20037;-69
2022/08/31 03:14:53;;;;;;;2.65;0.88;;;13.00;1.00;;;;;;5026920;28;20482;-69
2022/08/31 03:17:18;;;;;;;3.47;1.00;;;12.80;1.00;;;;;;5048592;28;20041;-69
2022/08/31 03:19:44;;;;;;;4.13;0.90;;;12.60;1.00;;;;;;5048885;28;20398;-69
2022/08/31 03:22:12;;;;;;;2.47;0.80;;;;;;;;;;5046162;28;20033;-69
2022/08/31 03:24:37;;;;;;;3.05;0.90;;;12.90;1.00;;;;;;5049593;28;20037;-69
2022/08/31 03:27:03;;;;;;;3.53;0.98;;;13.10;1.00;;;;;;5047810;28;20041;-69
2022/08/31 03:29:29;;;;;;;3.47;1.45;;;12.60;1.00;;;;;;5049065;28;20040;-69
2022/08/31 03:31:54;;;;;;;2.58;1.00;;;12.40;1.00;;;;;;5032296;28;20072;-69
2022/08/31 03:34:20;;;;;;;3.03;1.10;;;13.10;1.00;;;;;;5052204;28;20047;-69
2022/08/31 03:36:46;;;;;;;4.75;1.40;;;12.90;1.00;;;;;;5052194;28;20041;-69
2022/08/31 03:39:11;;;;;;;3.13;1.10;;;12.80;1.00;;;;;;5051312;28;20079;-69
2022/08/31 03:41:38;;;;;;;3.20;1.00;;;;;;;;;;5052900;28;20036;-69
2022/08/31 03:44:04;;;;;;;3.63;1.00;;;;;;;;;;5093957;22;20076;-55
2022/08/31 03:46:33;;;;;;;2.35;0.90;;;13.00;1.00;;;;;;5033680;28;20045;-59
2022/08/31 03:49:02;;;;;;;2.58;1.00;;;13.60;1.00;;;;;;5039875;28;20044;-56
2022/08/31 03:51:29;;;;;;;3.03;0.98;;;;;;;;;;5031804;28;20045;-56
2022/08/31 03:53:54;;;;;;;3.60;1.00;;;12.70;1.00;;;;;;5033222;28;20041;-58
2022/08/31 03:56:20;;;;;;;3.03;1.10;;;;;;;;;;5032308;28;20461;-57
2022/08/31 03:58:47;;;;;;;3.25;1.00;;;;;;;;;;5032016;28;20030;-55
2022/08/31 04:01:13;;;;;;;3.63;1.15;;;;;;;;;;5033218;28;20045;-56
2022/08/31 04:03:39;;;;;;;3.65;1.08;;;;;;;;;;5032185;28;20120;-55
2022/08/31 04:06:09;;;;;;;3.50;1.20;;;;;;;;;;5032858;28;20183;-54
2022/08/31 04:08:35;;;;;;;3.30;1.05;;;12.80;1.00;;;;;;5032010;28;20042;-55
2022/08/31 04:11:10;;;;;;;3.53;1.13;;;12.70;1.00;;;;;;5032742;28;20036;-57
2022/08/31 04:13:37;;;;;;;2.58;0.90;;;12.90;1.00;;;;;;5011184;28;20049;-57
2022/08/31 04:16:06;;;;;;;6.85;1.60;;;12.60;1.00;;;;;;5014830;28;20033;-57
2022/08/31 04:18:32;;;;;;;3.22;1.20;;;;;;;;;;5032172;28;20038;-58
2022/08/31 04:20:58;;;;;;;3.95;1.27;;;;;;;;;;5031780;28;20048;-57
2022/08/31 04:23:28;;;;;;;4.97;1.20;;;12.80;1.00;;;;;;5032583;28;20029;-56
2022/08/31 04:25:57;;;;;;;3.15;1.15;;;13.10;1.00;;;;;;5028110;28;20037;-55
2022/08/31 04:28:23;;;;;;;4.70;1.20;;;;;;;;;;5031952;28;20041;-53
2022/08/31 04:30:49;;;;;;;3.67;1.15;;;12.50;1.00;;;;;;5014255;28;20049;-55
2022/08/31 04:33:15;;;;;;;7.25;1.45;;;12.70;1.00;;;;;;5033660;28;20037;-53
2022/08/31 04:35:42;;;;;;;3.38;1.42;;;;;;;;;;5031416;28;20116;-56
2022/08/31 04:38:07;;;;;;;5.03;1.33;;;12.60;1.00;;;;;;5029338;28;20092;-59
2022/08/31 04:40:36;;;;;;;4.28;1.30;;;12.90;1.00;;;;;;5026935;28;20438;-57
2022/08/31 04:43:02;;;;;;;3.35;1.42;;;12.70;1.00;;;;;;5030804;28;20040;-58
2022/08/31 04:45:28;;;;;;;2.85;1.17;;;12.70;1.00;;;;;;5031297;28;20033;-61
2022/08/31 04:47:59;;;;;;;5.28;1.27;;;12.50;1.00;;;;;;5039285;28;20041;-56
2022/08/31 04:50:24;;;;;;;4.97;1.50;;;12.80;1.00;;;;;;5030178;28;20502;-58
2022/08/31 04:52:50;;;;;;;4.20;1.40;;;12.60;1.00;;;;;;5028745;28;20072;-60
2022/08/31 04:55:16;;;;;;;5.47;1.73;;;12.50;1.00;;;;;;5026804;28;20392;-57
2022/08/31 04:57:42;;;;;;;5.18;1.50;;;;;;;;;;5030836;28;20080;-56
2022/08/31 05:00:09;;;;;;;5.35;1.88;;;;;;;;;;5027802;28;20045;-56
2022/08/31 05:02:35;;;;;;;4.50;1.63;;;12.60;1.00;;;;;;5024878;28;20463;-60
2022/08/31 05:05:02;;;;;;;5.63;1.63;;;;;;;;;;5022919;28;20487;-60
2022/08/31 05:07:28;;;;;;;3.72;1.40;;;12.80;1.00;;;;;;5017440;28;20411;-58
2022/08/31 05:09:54;;;;;;;4.90;1.48;;;;;;;;;;5026507;28;20041;-58
2022/08/31 05:12:20;;;;;;;5.25;1.80;;;12.70;1.00;;;;;;5033722;28;20518;-59
2022/08/31 05:14:46;;;;;;;3.88;1.30;;;12.70;1.00;;;;;;5030933;28;20120;-57
2022/08/31 05:17:12;;;;;;;5.10;1.58;;;12.70;1.00;;;;;;5030711;28;20038;-58
2022/08/31 05:19:38;;;;;;;4.65;1.63;;;;;;;;;;5031061;28;20533;-56
2022/08/31 05:22:04;;;;;;;4.18;1.65;;;12.90;1.00;;;;;;5031243;28;20040;-56
2022/08/31 05:24:34;;;;;;;6.13;1.70;;;12.70;1.00;;;;;;5029113;28;20026;-54
2022/08/31 05:27:01;;;;;;;4.93;2.30;;;;;;;;;;5024655;28;20104;-56
2022/08/31 05:29:30;;;;;;;5.13;1.70;;;12.60;1.00;;;;;;5018180;28;20036;-61
2022/08/31 05:31:55;;;;;;;4.50;1.70;;;13.10;1.00;;;;;;5027873;28;20455;-56
2022/08/31 05:34:21;;;;;;;4.65;1.50;;;;;;;;;;5034922;28;20099;-56
2022/08/31 05:36:55;;;;;;;4.72;1.52;;;;;;;;;;5029650;28;20128;-62
2022/08/31 05:39:21;;;;;;;3.60;1.45;;;;;;;;;;5023840;28;20123;-57
2022/08/31 05:41:47;;;;;;;4.75;1.60;;;12.70;1.00;;;;;;5039872;28;20045;-56
2022/08/31 05:44:14;;;;;;;4.22;1.67;;;;;;;;;;5037540;28;20033;-57
2022/08/31 05:46:40;;;;;;;4.57;1.40;;;13.30;1.00;;;;;;5039976;28;20056;-56
2022/08/31 05:49:10;;;;;;;3.90;1.40;;;;;;;;;;5026630;28;20098;-57
2022/08/31 05:51:37;;;;;;;5.38;1.77;;;;;;;;;;5035898;28;20041;-57
2022/08/31 05:54:03;;;;;;;4.47;1.40;;;;;;;;;;5038746;28;20064;-59
2022/08/31 05:56:29;;;;;;;4.28;1.40;;;;;;;;;;5046641;28;20361;-57
2022/08/31 05:58:55;;;;;;;4.10;1.38;;;;;;;;;;5042266;28;20039;-58
2022/08/31 06:01:29;;;;;;;3.78;1.33;;;13.40;1.00;;;;;;5046994;28;20569;-56
2022/08/31 06:03:55;;;;;;;4.07;1.42;;;13.90;1.00;;;;;;5027087;28;20033;-57
2022/08/31 06:06:30;;;;;;;4.15;1.30;;;13.90;1.00;;;;;;5040204;28;20567;-58
2022/08/31 06:08:56;;;;;;;4.50;1.50;;;14.00;1.00;;;;;;5032989;28;20514;-58
2022/08/31 06:11:26;;;;;;;5.38;1.60;;;;;;;;;;5032924;28;20052;-57
2022/08/31 06:13:54;;;;;;;5.40;1.70;;;14.50;1.00;;;;;;5041878;28;20170;-57
2022/08/31 06:16:21;;;;;;;3.85;1.40;;;;;;;;;;5042084;28;20068;-59
2022/08/31 06:18:51;;;;;;;5.03;1.27;;;14.40;1.00;;;;;;4999465;28;20048;-56
2022/08/31 06:21:24;;;;;;;4.90;1.63;;;;;;;;;;5036548;28;20135;-56
2022/08/31 06:23:51;;;;;;;4.43;1.35;;;;;;;;;;5034069;28;20029;-57
2022/08/31 06:26:19;;;;;;;4.50;1.38;;;13.60;1.00;;;;;;5042366;28;20065;-59
2022/08/31 06:28:48;;;;;;;4.60;1.40;;;14.80;1.00;;;;;;5032980;28;20034;-58
2022/08/31 06:31:22;;;;;;;4.10;1.35;;;14.40;1.00;;;;;;5043664;28;20029;-58
2022/08/31 06:33:50;;;;;;;4.45;1.42;;;14.50;1.00;;;;;;5044217;28;20063;-57
2022/08/31 06:36:19;;;;;;;3.58;1.50;;;14.50;1.00;;;;;;5041645;28;20037;-59
2022/08/31 06:38:45;;;;;;;4.15;1.45;;;14.60;1.00;;;;;;5035259;28;20056;-57
2022/08/31 06:41:32;;;;;;;4.95;1.48;;;14.60;1.00;;;;;;5036668;28;20034;-59
2022/08/31 06:43:59;;;;;;;3.80;1.30;;;14.80;1.00;;;;;;5038929;28;20037;-58
2022/08/31 06:46:25;;;;;;;3.85;1.50;;;14.70;1.00;;;;;;5033913;28;20041;-60
2022/08/31 06:48:55;;;;;;;3.38;1.30;;;15.10;1.00;;;;;;5033594;28;20037;-57
2022/08/31 06:51:22;;;;;;;3.28;1.30;;;14.80;1.00;;;;;;5024748;28;20120;-57
2022/08/31 06:53:48;;;;;;;3.72;1.30;;;15.60;1.00;;;;;;5038433;28;20044;-57
2022/08/31 06:56:19;;;;;;;4.45;1.30;;;15.20;1.00;;;;;;5020310;28;20037;-60
2022/08/31 06:58:45;;;;;;;4.57;1.60;;;15.30;1.00;;;;;;5034830;28;20033;-57
2022/08/31 07:01:17;;;;;;;4.45;1.33;;;14.90;1.00;;;;;;5030651;28;20387;-59
2022/08/31 07:03:44;;;;;;;4.30;1.33;;;15.20;1.00;;;;;;5034073;28;20083;-59
2022/08/31 07:06:12;;;;;;;5.55;1.50;;;;;;;;;;5040411;28;20068;-57
2022/08/31 07:08:39;;;;;;;3.97;1.30;;;15.40;1.00;;;;;;5035348;28;20037;-57
2022/08/31 07:11:11;;;;;;;4.57;1.40;;;15.80;1.00;;;;;;5038317;28;20087;-60
2022/08/31 07:13:37;;;;;;;4.85;1.40;;;15.30;1.00;;;;;;5049642;28;20072;-61
2022/08/31 07:16:09;;;;;;;4.45;1.30;;;16.00;1.00;;;;;;5046517;28;20064;-55
2022/08/31 07:18:36;;;;;;;3.15;1.20;;;15.40;1.00;;;;;;5042693;28;20037;-61
2022/08/31 07:21:10;;;;;;;3.13;1.10;;;16.50;1.00;;;;;;5032738;28;20032;-60
2022/08/31 07:23:37;;;;;;;3.80;1.30;;;15.40;1.00;;;;;;5043509;28;20045;-60
2022/08/31 07:26:16;;;;;;;3.22;1.15;;;15.40;1.00;;;;;;5044232;28;20032;-57
2022/08/31 07:28:50;;;;;;;3.50;1.00;;;15.80;1.00;;;;;;5035627;28;20104;-58
2022/08/31 07:31:16;;;;;;;4.53;1.35;;;15.60;1.00;;;;;;5039346;28;20037;-60
2022/08/31 07:33:41;;;;;;;7.38;1.10;;;16.60;1.00;;;;;;5036810;28;20056;-56
2022/08/31 07:36:09;;;;;;;3.45;1.20;;;16.10;1.00;;;;;;5033961;28;20064;-60
2022/08/31 07:44:07;;;;;;;4.10;1.45;;;16.80;1.00;;;;;;5032713;28;20112;-56
2022/08/31 07:46:34;;;;;;;3.63;1.33;;;16.90;1.00;;;;;;5038353;28;20043;-59
2022/08/31 07:49:00;;;;;;;4.80;1.20;;;15.70;1.00;;;;;;5029236;28;20117;-57
2022/08/31 07:51:26;;;;;;;4.35;1.40;;;16.80;1.00;;;;;;5040946;28;20111;-59
2022/08/31 07:53:53;;;;;;;3.88;1.40;;;16.60;1.00;;;;;;5035069;28;20069;-59
2022/08/31 07:56:20;;;;;;;4.28;1.30;;;17.10;1.00;;;;;;5040070;28;20033;-57
2022/08/31 07:58:48;;;;;;;3.45;1.10;;;17.00;1.00;;;;;;5046967;28;20494;-60
2022/08/31 08:01:15;;;;;;;3.22;1.05;;;16.80;1.00;;;;;;5007434;28;20037;-57
2022/08/31 08:03:43;;;;;;;3.40;1.00;;;16.80;1.00;;;;;;5017918;28;20053;-59
2022/08/31 08:06:14;;;;;;;4.95;1.52;;;17.20;1.00;;;;;;5043613;28;20033;-57
2022/08/31 08:08:46;;;;;;;4.22;1.08;;;17.10;1.00;;;;;;5021786;28;20095;-57
2022/08/31 08:11:20;;;;;;;3.25;1.20;;;16.30;1.00;;;;;;5041470;28;20033;-57
2022/08/31 08:13:47;;;;;;;4.75;1.13;;;17.00;1.00;;;;;;5051495;28;20395;-58
2022/08/31 08:16:15;;;;;;;3.80;1.17;;;;;;;;;;5097440;22;20072;-88
2022/08/31 08:18:42;;;;;;;3.40;1.00;;;;;;;;;;5013855;28;20041;-83
2022/08/31 08:21:12;;;;;;;4.72;1.27;;;;;;;;;;5041274;28;20182;-83
2022/08/31 08:23:38;;;;;;;3.97;1.33;;;;;;;;;;5057096;28;20127;-82
2022/08/31 08:26:11;;;;;;;3.33;1.10;;;;;;;;;;5031431;28;20252;-85
2022/08/31 08:28:37;;;;;;;4.55;1.13;;;;;;;;;;5030850;28;20047;-87
2022/08/31 08:31:04;;;;;;;3.55;1.20;;;17.60;99.90;;;;;;5043226;23;20044;-88
2022/08/31 08:33:32;;;;;;;3.22;1.00;;;17.90;99.90;;;;;;5032868;28;20374;-89
2022/08/31 08:36:01;;;;;;;4.20;1.00;;;17.70;99.90;;;;;;5016851;28;20049;-86
2022/08/31 08:38:29;;;;;;;3.25;1.00;;;17.40;99.90;;;;;;5025715;28;20433;-89
2022/08/31 08:40:57;;;;;;;3.65;1.02;;;16.40;99.90;;;;;;5011197;28;20530;-90
2022/08/31 08:43:33;;;;;;;3.70;1.10;;;17.80;99.90;;;;;;5002686;28;20058;-90
2022/08/31 08:46:01;;;;;;;5.13;1.00;;;18.40;99.90;;;;;;5013707;28;20594;-89
2022/08/31 08:48:32;;;;;;;2.95;0.98;;;17.70;99.90;;;;;;5029457;28;20409;-88
2022/08/31 08:51:00;;;;;;;3.47;0.90;;;17.90;99.90;;;;;;4995788;28;20041;-89
2022/08/31 08:53:31;;;;;;;2.85;0.93;;;17.80;99.90;;;;;;5011055;28;20420;-88
2022/08/31 08:55:57;;;;;;;2.58;0.90;;;18.00;99.90;;;;;;5003063;28;20428;-89
2022/08/31 08:58:24;;;;;;;3.67;0.98;;;17.80;99.90;;;;;;5011329;28;20048;-90
2022/08/31 09:00:53;;;;;;;2.88;0.90;;;18.20;99.90;;;;;;5010553;28;20052;-89
2022/08/31 09:03:29;;;;;;;1.95;0.77;;;18.70;99.90;;;;;;5025608;28;20091;-91
2022/08/31 09:06:14;;;;;;;2.95;1.05;;;17.60;99.90;;;;;;5008370;28;20075;-89
2022/08/31 09:08:45;;;;;;;4.03;1.00;;;18.60;99.90;;;;;;5028678;28;20041;-88
2022/08/31 09:11:24;;;;;;;3.90;1.10;;;17.80;99.90;;;;;;5012027;28;20521;-88
2022/08/31 09:14:05;;;;;;;3.65;0.93;;;18.10;99.90;;;;;;4993476;28;20032;-89
2022/08/31 09:16:55;;;;;;;2.75;0.80;;;18.80;99.90;;;;;;5006638;28;20033;-88
2022/08/31 09:19:20;;;;;;;3.90;0.90;;;18.50;99.90;;;;;;4978977;28;20072;-89
2022/08/31 09:21:49;;;;;;;3.72;1.00;;;18.50;99.90;;;;;;5029212;28;20115;-91
2022/08/31 09:24:21;;;;;;;2.58;0.80;;;18.40;99.90;;;;;;5017830;28;20094;-90
2022/08/31 09:27:17;;;;;;;2.80;0.90;;;18.50;99.90;;;;;;5026639;28;20095;-89
2022/08/31 09:29:57;;;;;;;2.40;0.90;;;19.10;99.90;;;;;;5009938;28;20045;-90
2022/08/31 09:32:30;;;;;;;2.47;0.90;;;19.00;99.90;;;;;;5004079;28;20051;-90
2022/08/31 09:35:00;;;;;;;3.13;0.90;;;18.60;99.90;;;;;;5012248;28;20041;-89
2022/08/31 09:37:32;;;;;;;2.65;0.80;;;16.90;99.90;;;;;;5007527;28;20066;-88
2022/08/31 09:40:13;;;;;;;4.30;1.00;;;19.30;99.90;;;;;;5024380;28;20043;-90
2022/08/31 09:42:39;;;;;;;2.47;0.80;;;19.10;99.90;;;;;;5034276;28;20128;-90
2022/08/31 09:45:28;;;;;;;2.33;0.77;;;19.90;99.90;;;;;;4982303;28;20052;-89
2022/08/31 09:47:59;;;;;;;1.92;0.80;;;20.00;99.90;;;;;;4998483;28;20043;-90
2022/08/31 09:50:33;;;;;;;4.18;0.90;;;19.80;99.90;;;;;;5023438;28;20512;-90
2022/08/31 09:56:13;;;;;;;4.03;0.95;;;19.80;99.90;;;;;;5028102;28;20045;-90
2022/08/31 09:58:41;;;;;;;3.17;0.90;;;20.20;99.90;;;;;;5004053;28;20049;-89
2022/08/31 10:01:17;;;;;;;3.05;0.95;;;20.30;99.90;;;;;;5002245;28;20041;-89
2022/08/31 10:03:47;;;;;;;2.88;0.90;;;21.00;99.90;;;;;;5020500;28;20059;-88
2022/08/31 10:06:34;;;;;;;2.38;0.80;;;21.20;99.90;;;;;;5000747;28;20033;-89
2022/08/31 10:09:09;;;;;;;4.75;1.00;;;20.80;99.90;;;;;;5004350;28;20417;-88
2022/08/31 10:11:35;;;;;;;2.33;0.80;;;21.80;99.90;;;;;;4998153;28;20096;-89
2022/08/31 10:14:14;;;;;;;3.58;1.08;;;21.40;99.90;;;;;;5033635;28;20041;-90
2022/08/31 10:16:50;;;;;;;2.88;0.90;;;21.00;99.90;;;;;;4998749;28;20049;-90
2022/08/31 10:19:26;;;;;;;2.50;0.80;;;21.70;99.90;;;;;;5046158;28;20437;-90
2022/08/31 10:22:01;;;;;;;4.25;1.52;;;20.70;99.90;;;;;;5011826;28;20044;-90
2022/08/31 10:24:48;;;;;;;3.28;0.95;;;21.80;99.90;;;;;;4995824;28;20040;-89
2022/08/31 10:27:31;;;;;;;4.70;1.00;;;21.40;99.90;;;;;;5000681;28;20045;-91
2022/08/31 10:30:19;;;;;;;2.95;0.98;;;20.90;99.90;;;;;;5010924;28;20500;-89
2022/08/31 10:33:03;;;;;;;3.53;1.15;;;21.40;99.90;;;;;;5007029;28;20583;-90
2022/08/31 10:35:53;;;;;;;3.05;0.95;;;20.60;99.90;;;;;;5021452;28;20082;-90
2022/08/31 10:38:29;;;;;;;5.25;1.00;;;21.30;99.90;;;;;;5018368;28;20128;-89
2022/08/31 10:41:14;;;;;;;3.35;0.90;;;21.30;99.90;;;;;;5007812;28;20038;-89
2022/08/31 10:44:22;;;;;;;2.60;0.80;;;20.70;99.90;;;;;;5000722;28;20083;-90
2022/08/31 10:46:53;;;;;;;3.00;0.82;;;21.90;99.90;;;;;;5024481;28;20057;-88
2022/08/31 10:49:20;;;;;;;3.58;0.93;;;20.90;99.90;;;;;;5028863;28;20041;-88
2022/08/31 10:51:49;;;;;;;3.55;0.90;;;20.80;99.90;;;;;;4989933;28;20497;-90
2022/08/31 10:54:39;;;;;;;3.08;0.90;;;20.90;99.90;;;;;;5004678;28;20092;-89
2022/08/31 10:57:18;;;;;;;4.45;1.08;;;21.70;99.90;;;;;;4997469;28;20124;-88
2022/08/31 11:00:40;;;;;;;2.92;1.15;;;21.70;99.90;;;;;;4991521;28;20099;-89
2022/08/31 11:03:15;;;;;;;3.30;0.93;;;21.70;99.90;;;;;;4939743;28;20145;-90
2022/08/31 11:05:49;;;;;;;2.40;0.85;;;22.10;99.90;;;;;;5027402;28;20480;-89
2022/08/31 11:08:54;;;;;;;5.20;1.00;;;22.10;99.90;;;;;;5016999;28;20523;-90
2022/08/31 11:11:34;;;;;;;2.50;0.95;;;22.30;99.90;;;;;;5020087;28;20051;-90
2022/08/31 11:14:13;;;;;;;4.00;1.20;;;22.80;99.90;;;;;;4998139;28;20044;-91
2022/08/31 11:16:54;;;;;;;3.75;1.00;;;22.10;99.90;;;;;;4998443;28;20048;-89
2022/08/31 11:19:26;;;;;;;3.22;1.00;;;22.30;99.90;;;;;;4998473;28;20045;-90
2022/08/31 11:22:06;;;;;;;4.47;1.02;;;22.70;99.90;;;;;;5038307;28;20081;-90
2022/08/31 11:25:07;;;;;;;2.95;0.82;;;22.30;99.90;;;;;;5027891;28;20085;-90
2022/08/31 11:28:08;;;;;;;4.50;1.05;;;22.80;99.90;;;;;;5003757;28;20077;-89
2022/08/31 11:30:40;;;;;;;3.90;0.88;;;23.00;99.90;;;;;;5013230;28;20083;-88
2022/08/31 11:33:18;;;;;;;3.83;1.08;;;23.00;99.90;;;;;;5001848;28;20042;-90
2022/08/31 11:35:59;;;;;;;3.13;0.90;;;23.10;99.90;;;;;;5006117;28;20095;-90
2022/08/31 11:38:51;;;;;;;2.88;1.00;;;23.20;99.90;;;;;;5013243;28;20583;-91
2022/08/31 11:41:45;;;;;;;4.57;0.90;;;22.90;99.90;;;;;;4991084;28;20039;-90
2022/08/31 11:44:32;;;;;;;4.50;1.00;;;23.10;99.90;;;;;;5000650;28;20147;-91
2022/08/31 11:47:08;;;;;;;2.80;0.93;;;23.00;99.90;;;;;;4997457;28;20052;-90
2022/08/31 11:49:36;;;;;;;3.05;0.90;;;23.10;99.90;;;;;;5009232;28;20587;-91
2022/08/31 11:52:07;;;;;;;4.68;1.10;;;23.20;99.90;;;;;;5000741;28;20099;-91
2022/08/31 11:54:41;;;;;;;4.07;1.05;;;23.20;99.90;;;;;;5034586;28;20074;-90
2022/08/31 11:57:14;;;;;;;4.53;1.10;;;23.40;99.90;;;;;;5022669;28;20084;-88
2022/08/31 11:59:47;;;;;;;2.58;0.95;;;23.20;99.90;;;;;;5024544;28;20116;-89
2022/08/31 12:02:19;;;;;;;4.03;0.90;;;23.50;99.90;;;;;;5038158;28;20048;-90
2022/08/31 12:04:45;;;;;;;2.72;1.00;;;21.30;99.90;;;;;;5017906;28;20394;-90
2022/08/31 12:07:27;;;;;;;4.80;1.20;;;24.70;99.90;;;;;;5037084;28;20125;-92
2022/08/31 12:10:02;;;;;;;3.75;0.90;;;24.00;99.90;;;;;;5024175;28;20771;-90
2022/08/31 12:12:58;;;;;;;3.25;1.10;;;24.90;99.90;;;;;;5035250;28;20080;-90
2022/08/31 12:15:49;;;;;;;3.53;1.20;;;26.50;99.90;;;;;;5007170;28;20045;-90
2022/08/31 12:18:43;;;;;;;4.45;1.50;;;28.60;99.90;;;;;;5011999;28;20479;-92
2022/08/31 12:24:34;;;;;;;3.33;1.00;;;32.70;99.90;;;;;;5010327;28;20132;-91
2022/08/31 12:27:14;;;;;;;3.70;1.05;;;34.30;99.90;;;;;;5035471;28;20060;-92
2022/08/31 12:29:41;;;;;;;4.03;1.10;;;34.90;99.90;;;;;;5011493;28;20068;-91
2022/08/31 12:32:07;;;;;;;4.72;1.00;;;37.20;99.90;;;;;;5011344;28;20472;-91
2022/08/31 12:34:37;;;;;;;3.83;1.25;;;37.60;99.90;;;;;;5011551;28;20047;-91
2022/08/31 12:37:20;;;;;;;5.03;1.00;;;38.90;99.90;;;;;;5010560;28;20080;-92
2022/08/31 12:39:45;;;;;;;3.50;0.98;;;39.60;99.90;;;;;;5033980;28;20045;-92
2022/08/31 12:42:11;;;;;;;6.03;1.23;;;39.50;99.90;;;;;;4997762;28;20059;-90
2022/08/31 12:44:45;;;;;;;4.10;1.00;;;39.50;99.90;;;;;;5032645;28;20504;-90
2022/08/31 12:47:31;;;;;;;;;;;40.70;99.90;;;;;;5018032;28;20095;-88
2022/08/31 12:50:18;;;;;;;3.45;1.00;;;40.20;99.90;;;;;;5006857;28;19921;-88
2022/08/31 12:52:43;;;;;;;3.05;0.98;;;40.10;99.90;;;;;;5042291;28;20081;-90
2022/08/31 12:55:20;;;;;;;4.28;0.90;;;39.40;99.90;;;;;;5022434;28;20105;-90
2022/08/31 12:58:12;;;;;;;5.85;1.05;;;39.90;99.90;;;;;;5016255;28;20405;-91
2022/08/31 13:00:38;;;;;;;2.70;0.80;;;39.90;99.90;;;;;;5001008;28;20053;-92
2022/08/31 13:03:26;;;;;;;3.40;1.05;;;40.60;99.90;;;;;;5038876;28;20039;-91
2022/08/31 13:06:13;;;;;;;3.78;1.00;;;42.10;99.90;;;;;;5008652;28;20045;-90
2022/08/31 13:08:41;;;;;;;3.63;1.10;;;42.10;99.90;;;;;;5024184;28;20098;-92
2022/08/31 13:11:19;;;;;;;4.80;1.05;;;42.50;99.90;;;;;;5022742;28;20041;-91
2022/08/31 13:13:45;;;;;;;3.40;0.90;;;44.00;99.90;;;;;;5018138;28;20080;-90
2022/08/31 13:16:12;;;;;;;3.50;1.20;;;42.20;99.90;;;;;;5016955;28;20481;-91
2022/08/31 13:18:38;;;;;;;4.05;1.10;;;43.40;99.90;;;;;;5010793;28;20086;-91
2022/08/31 13:21:09;;;;;;;2.85;0.95;;;43.60;99.90;;;;;;5005681;28;20474;-92
2022/08/31 13:23:39;;;;;;;3.55;1.15;;;44.10;99.90;;;;;;4997306;28;20033;-89
2022/08/31 13:26:19;;;;;;;2.25;0.82;;;43.80;99.90;;;;;;5005413;28;20041;-92
2022/08/31 13:28:49;;;;;;;4.32;1.10;;;43.30;99.90;;;;;;5005109;28;20081;-91
2022/08/31 13:31:26;;;;;;;2.92;1.00;;;42.60;99.90;;;;;;5046382;28;20072;-91
2022/08/31 13:33:55;;;;;;;3.50;1.00;;;42.90;99.90;;;;;;5004365;28;20127;-91
2022/08/31 13:36:36;;;;;;;4.13;1.10;;;44.30;99.90;;;;;;5003349;28;20130;-91
2022/08/31 13:39:27;;;;;;;3.97;1.10;;;44.90;99.90;;;;;;5000092;28;20112;-91
2022/08/31 13:42:09;;;;;;;2.00;0.88;;;45.50;99.90;;;;;;5005972;28;20261;-92